createdAt,value
2019-05-07T00:00:32.935Z,22.40
2019-05-07T00:03:03.292Z,23.52
2019-05-07T00:05:33.195Z,23.02
2019-05-07T00:08:02.950Z,23.42
2019-05-07T00:10:33.114Z,24.92
2019-05-07T00:13:02.325Z,23.62
2019-05-07T00:15:32.766Z,22.02
2019-05-07T00:18:03.250Z,22.77
2019-05-07T00:20:32.751Z,22.70
2019-05-07T00:23:02.920Z,23.32
2019-05-07T00:25:32.756Z,22.98
2019-05-07T00:28:02.780Z,24.23
2019-05-07T00:30:33.144Z,23.10
2019-05-07T00:33:02.888Z,23.42
2019-05-07T00:35:49.799Z,25.62
2019-05-07T00:38:22.326Z,22.75
2019-05-07T00:40:55.129Z,22.90
2019-05-07T00:43:25.591Z,22.70
2019-05-07T00:45:59.074Z,23.20
2019-05-07T00:48:27.943Z,24.57
2019-05-07T00:51:14.622Z,22.35
2019-05-07T00:53:43.505Z,20.60
2019-05-07T00:56:12.466Z,21.25
2019-05-07T00:58:42.831Z,19.90
2019-05-07T01:01:13.030Z,21.68
2019-05-07T01:03:42.516Z,21.55
2019-05-07T01:06:12.892Z,22.35
2019-05-07T01:08:43.044Z,22.80
2019-05-07T01:11:13.176Z,23.90
2019-05-07T01:13:43.167Z,23.02
2019-05-07T01:16:32.971Z,20.90
2019-05-07T01:19:02.265Z,23.07
2019-05-07T01:21:32.468Z,22.27
2019-05-07T01:24:03.276Z,20.82
2019-05-07T01:26:32.959Z,23.20
2019-05-07T01:29:02.954Z,21.25
2019-05-07T01:31:35.059Z,21.48
2019-05-07T01:36:46.802Z,22.05
2019-05-07T01:39:15.614Z,21.75
2019-05-07T01:41:44.375Z,20.05
2019-05-07T01:44:12.928Z,22.67
2019-05-07T01:46:42.255Z,21.62
2019-05-07T01:49:12.518Z,21.55
2019-05-07T01:51:42.248Z,21.93
2019-05-07T01:54:12.956Z,21.35
2019-05-07T01:56:42.717Z,21.82
2019-05-07T01:59:12.127Z,18.87
2019-05-07T02:01:42.877Z,19.17
2019-05-07T02:04:19.038Z,19.80
2019-05-07T02:07:06.117Z,19.15
2019-05-07T02:09:36.546Z,19.87
2019-05-07T02:12:07.094Z,18.75
2019-05-07T02:14:35.894Z,20.72
2019-05-07T02:17:24.096Z,20.60
2019-05-07T02:19:52.832Z,18.57
2019-05-07T02:22:22.688Z,20.48
2019-05-07T02:24:52.323Z,19.52
2019-05-07T02:27:22.143Z,20.68
2019-05-07T02:29:52.818Z,19.12
2019-05-07T02:32:24.069Z,19.95
2019-05-07T02:34:54.620Z,18.98
2019-05-07T02:37:28.675Z,19.87
2019-05-07T02:39:56.406Z,19.45
2019-05-07T02:42:25.269Z,19.75
2019-05-07T02:45:04.235Z,19.20
2019-05-07T02:47:33.437Z,19.62
2019-05-07T02:50:13.404Z,19.65
2019-05-07T02:52:53.328Z,20.00
2019-05-07T02:55:23.241Z,19.17
2019-05-07T02:57:53.974Z,19.05
2019-05-07T03:00:24.220Z,18.48
2019-05-07T03:02:53.521Z,18.95
2019-05-07T03:05:23.045Z,20.17
2019-05-07T03:07:53.592Z,20.50
2019-05-07T03:10:23.744Z,19.30
2019-05-07T03:12:53.776Z,20.50
2019-05-07T03:15:24.154Z,19.45
2019-05-07T03:17:53.983Z,20.35
2019-05-07T03:20:24.611Z,18.92
2019-05-07T03:22:54.356Z,21.40
2019-05-07T03:25:34.012Z,20.10
2019-05-07T03:28:04.416Z,19.07
2019-05-07T03:30:45.719Z,20.35
2019-05-07T03:36:07.071Z,21.15
2019-05-07T03:38:33.463Z,22.77
2019-05-07T03:41:03.866Z,22.52
2019-05-07T03:43:32.788Z,22.30
2019-05-07T03:46:06.216Z,21.57
2019-05-07T03:48:36.802Z,22.32
2019-05-07T03:51:05.666Z,21.17
2019-05-07T03:53:34.526Z,20.75
2019-05-07T03:56:04.041Z,20.40
2019-05-07T03:58:34.109Z,22.05
2019-05-07T04:01:04.436Z,19.82
2019-05-07T04:03:34.316Z,19.48
2019-05-07T04:06:04.080Z,22.25
2019-05-07T04:08:33.558Z,20.50
2019-05-07T04:11:03.576Z,20.27
2019-05-07T04:13:33.773Z,22.10
2019-05-07T04:16:03.969Z,19.95
2019-05-07T04:18:33.622Z,20.35
2019-05-07T04:21:03.852Z,21.80
2019-05-07T04:23:34.192Z,24.60
2019-05-07T04:26:07.645Z,23.27
2019-05-07T04:28:43.403Z,22.10
2019-05-07T04:31:14.154Z,21.15
2019-05-07T04:33:43.991Z,20.32
2019-05-07T04:36:14.795Z,19.10
2019-05-07T04:38:44.157Z,19.17
2019-05-07T04:41:13.958Z,21.73
2019-05-07T04:43:43.660Z,20.20
2019-05-07T04:46:14.387Z,21.05
2019-05-07T04:48:43.928Z,21.45
2019-05-07T04:51:15.038Z,20.50
2019-05-07T04:53:44.011Z,20.82
2019-05-07T04:56:14.075Z,21.45
2019-05-07T04:58:43.507Z,19.75
2019-05-07T05:01:14.139Z,19.48
2019-05-07T05:03:43.845Z,19.25
2019-05-07T05:06:13.624Z,19.90
2019-05-07T05:08:43.670Z,19.45
2019-05-07T05:11:12.953Z,21.95
2019-05-07T05:13:44.488Z,20.75
2019-05-07T05:16:25.989Z,19.45
2019-05-07T05:18:56.256Z,18.40
2019-05-07T05:21:32.817Z,19.87
2019-05-07T05:24:03.269Z,18.35
2019-05-07T05:26:32.580Z,19.00
2019-05-07T05:29:02.441Z,18.70
2019-05-07T05:31:33.042Z,20.30
2019-05-07T05:34:02.261Z,19.50
2019-05-07T05:36:33.039Z,20.23
2019-05-07T05:39:02.472Z,18.05
2019-05-07T05:41:34.108Z,18.20
2019-05-07T05:44:04.947Z,17.32
2019-05-07T05:46:34.375Z,17.55
2019-05-07T05:49:03.244Z,18.23
2019-05-07T05:51:33.740Z,15.53
2019-05-07T05:54:22.364Z,18.02
2019-05-07T05:56:52.905Z,15.50
2019-05-07T05:59:37.018Z,16.25
2019-05-07T06:02:03.387Z,17.00
2019-05-07T06:04:45.690Z,17.30
2019-05-07T06:07:18.643Z,16.25
2019-05-07T06:09:52.793Z,15.30
2019-05-07T06:12:35.561Z,14.28
2019-05-07T06:15:14.054Z,12.15
2019-05-07T06:17:47.398Z,9.68
2019-05-07T06:20:33.616Z,11.57
2019-05-07T06:23:12.687Z,11.10
2019-05-07T06:25:42.791Z,11.08
2019-05-07T06:28:12.620Z,10.40
2019-05-07T06:30:41.984Z,11.33
2019-05-07T06:33:12.446Z,10.03
2019-05-07T06:35:42.856Z,9.85
2019-05-07T06:38:13.011Z,9.38
2019-05-07T06:40:59.518Z,7.65
2019-05-07T06:43:32.519Z,7.10
2019-05-07T06:46:02.176Z,5.70
2019-05-07T06:48:39.187Z,6.30
2019-05-07T06:51:03.097Z,4.80
2019-05-07T06:53:33.288Z,4.62
2019-05-07T06:56:03.234Z,4.75
2019-05-07T06:58:36.533Z,5.22
2019-05-07T07:01:12.130Z,4.75
2019-05-07T07:03:58.691Z,5.37
2019-05-07T07:06:29.253Z,4.58
2019-05-07T07:09:15.360Z,4.77
2019-05-07T07:11:45.901Z,3.85
2019-05-07T07:14:14.439Z,3.83
2019-05-07T07:16:43.017Z,2.03
2019-05-07T07:19:12.438Z,3.93
2019-05-07T07:21:42.151Z,3.47
2019-05-07T07:24:12.721Z,3.63
2019-05-07T07:26:42.229Z,3.40
2019-05-07T07:29:12.794Z,3.07
2019-05-07T07:31:46.225Z,3.47
2019-05-07T07:34:15.000Z,3.20
2019-05-07T07:37:01.797Z,3.13
2019-05-07T07:39:18.434Z,2.83
2019-05-07T07:41:52.267Z,2.93
2019-05-07T07:44:22.323Z,3.57
2019-05-07T07:46:53.064Z,2.90
2019-05-07T07:49:22.227Z,3.30
2019-05-07T07:51:52.608Z,2.47
2019-05-07T07:54:22.666Z,2.30
2019-05-07T07:57:05.281Z,2.67
2019-05-07T07:59:35.579Z,2.20
2019-05-07T08:02:05.954Z,3.37
2019-05-07T08:04:34.752Z,3.40
2019-05-07T08:07:03.441Z,3.80
2019-05-07T08:09:33.660Z,3.17
2019-05-07T08:12:02.838Z,3.13
2019-05-07T08:14:51.949Z,2.53
2019-05-07T08:17:22.371Z,2.77
2019-05-07T08:19:51.963Z,2.60
2019-05-07T08:22:22.650Z,3.03
2019-05-07T08:24:51.944Z,2.60
2019-05-07T08:27:22.200Z,2.90
2019-05-07T08:29:52.514Z,2.70
2019-05-07T08:32:22.865Z,3.60
2019-05-07T08:34:52.985Z,4.23
2019-05-07T08:37:24.326Z,3.60
2019-05-07T08:39:52.092Z,4.53
2019-05-07T08:42:22.734Z,4.63
2019-05-07T08:45:04.720Z,4.40
2019-05-07T08:47:37.376Z,4.50
2019-05-07T08:50:06.975Z,3.43
2019-05-07T08:52:35.549Z,3.10
2019-05-07T08:55:06.250Z,3.30
2019-05-07T08:57:34.747Z,2.90
2019-05-07T09:00:05.092Z,3.10
2019-05-07T09:02:33.726Z,2.90
2019-05-07T09:05:03.041Z,2.80
2019-05-07T09:07:32.288Z,2.30
2019-05-07T09:10:21.873Z,2.97
2019-05-07T09:12:52.472Z,2.97
2019-05-07T09:15:22.607Z,2.63
2019-05-07T09:17:52.703Z,2.63
2019-05-07T09:20:22.815Z,2.97
2019-05-07T09:22:51.869Z,2.80
2019-05-07T09:25:22.264Z,3.80
2019-05-07T09:27:52.842Z,3.40
2019-05-07T09:30:38.577Z,3.90
2019-05-07T09:33:12.468Z,3.93
2019-05-07T09:35:42.818Z,3.20
2019-05-07T09:38:12.165Z,3.37
2019-05-07T09:40:42.173Z,3.23
2019-05-07T09:43:11.763Z,3.17
2019-05-07T09:45:42.098Z,3.13
2019-05-07T09:48:12.370Z,3.23
2019-05-07T09:50:42.787Z,3.07
2019-05-07T09:53:12.735Z,3.10
2019-05-07T09:55:42.522Z,3.20
2019-05-07T09:58:12.532Z,3.90
2019-05-07T10:00:42.469Z,3.53
2019-05-07T10:03:12.689Z,3.00
2019-05-07T10:05:42.677Z,3.70
2019-05-07T10:08:12.935Z,3.67
2019-05-07T10:11:04.299Z,3.93
2019-05-07T10:13:34.534Z,3.80
2019-05-07T10:16:04.340Z,5.03
2019-05-07T10:18:33.131Z,4.20
2019-05-07T10:21:02.518Z,3.83
2019-05-07T10:23:31.408Z,3.10
2019-05-07T10:26:01.676Z,4.17
2019-05-07T10:28:32.068Z,4.10
2019-05-07T10:31:01.117Z,4.20
2019-05-07T10:33:31.771Z,4.23
2019-05-07T10:36:01.947Z,4.33
2019-05-07T10:38:30.460Z,4.30
2019-05-07T10:40:59.081Z,3.63
2019-05-07T10:43:27.692Z,4.67
2019-05-07T10:45:57.515Z,4.43
2019-05-07T10:48:32.024Z,3.73
2019-05-07T10:51:02.481Z,5.00
2019-05-07T10:53:32.010Z,4.47
2019-05-07T10:56:02.659Z,5.10
2019-05-07T10:58:32.001Z,4.53
2019-05-07T11:01:02.853Z,5.00
2019-05-07T11:03:32.403Z,5.00
2019-05-07T11:06:01.160Z,4.47
2019-05-07T11:08:29.793Z,5.07
2019-05-07T11:10:58.391Z,4.63
2019-05-07T11:13:26.953Z,5.33
2019-05-07T11:16:06.326Z,5.80
2019-05-07T11:18:48.372Z,5.20
2019-05-07T11:21:18.643Z,4.70
2019-05-07T11:23:47.131Z,4.60
2019-05-07T11:26:35.045Z,4.30
2019-05-07T11:29:03.700Z,5.03
2019-05-07T11:31:33.080Z,4.67
2019-05-07T11:34:02.803Z,4.63
2019-05-07T11:36:32.018Z,3.67
2019-05-07T11:39:01.813Z,4.00
2019-05-07T11:41:48.077Z,9.63
2019-05-07T11:44:17.936Z,4.27
2019-05-07T11:47:04.721Z,4.23
2019-05-07T11:49:52.449Z,4.73
2019-05-07T11:52:22.854Z,4.83
2019-05-07T11:54:52.521Z,4.63
2019-05-07T11:57:22.127Z,4.93
2019-05-07T12:00:12.886Z,4.80
2019-05-07T12:02:42.362Z,5.83
2019-05-07T12:05:12.135Z,4.40
2019-05-07T12:07:41.958Z,4.20
2019-05-07T12:10:12.174Z,4.93
2019-05-07T12:12:42.421Z,3.40
2019-05-07T12:15:12.469Z,3.90
2019-05-07T12:17:42.824Z,3.80
2019-05-07T12:20:12.989Z,4.83
2019-05-07T12:22:47.881Z,4.70
2019-05-07T12:25:17.465Z,4.00
2019-05-07T12:27:47.603Z,4.30
2019-05-07T12:30:22.784Z,4.20
2019-05-07T12:33:11.937Z,4.00
2019-05-07T12:35:41.924Z,3.80
2019-05-07T12:38:12.677Z,4.20
2019-05-07T12:40:41.946Z,4.37
2019-05-07T12:43:11.320Z,5.57
2019-05-07T12:45:41.986Z,4.97
2019-05-07T12:48:12.185Z,5.33
2019-05-07T12:50:40.327Z,4.37
2019-05-07T12:53:13.088Z,4.40
2019-05-07T12:55:58.346Z,4.30
2019-05-07T12:58:46.198Z,3.80
2019-05-07T13:01:16.423Z,5.00
2019-05-07T13:04:04.114Z,4.70
2019-05-07T13:06:53.679Z,3.97
2019-05-07T13:09:22.362Z,4.07
2019-05-07T13:11:52.534Z,3.97
2019-05-07T13:14:21.794Z,4.53
2019-05-07T13:16:52.264Z,4.23
2019-05-07T13:19:22.566Z,4.23
2019-05-07T13:22:12.421Z,4.20
2019-05-07T13:24:42.423Z,5.57
2019-05-07T13:27:31.872Z,4.53
2019-05-07T13:30:02.396Z,4.87
2019-05-07T13:32:32.067Z,4.03
2019-05-07T13:35:02.699Z,4.30
2019-05-07T13:38:01.697Z,4.20
2019-05-07T13:40:38.073Z,4.00
2019-05-07T13:43:18.200Z,3.67
2019-05-07T13:46:06.763Z,3.87
2019-05-07T13:48:37.131Z,4.30
2019-05-07T13:51:05.859Z,4.60
2019-05-07T13:53:35.276Z,3.90
2019-05-07T13:56:03.932Z,4.77
2019-05-07T13:58:33.009Z,4.30
2019-05-07T14:01:08.835Z,4.57
2019-05-07T14:03:37.489Z,4.10
2019-05-07T14:06:06.054Z,4.30
2019-05-07T14:08:36.410Z,4.30
2019-05-07T14:11:05.027Z,4.80
2019-05-07T14:13:33.874Z,4.20
2019-05-07T14:16:09.409Z,4.00
2019-05-07T14:18:39.446Z,3.60
2019-05-07T14:21:07.903Z,3.77
2019-05-07T14:23:36.955Z,3.40
2019-05-07T14:26:06.368Z,3.10
2019-05-07T14:28:34.703Z,3.33
2019-05-07T14:31:03.430Z,3.57
2019-05-07T14:33:49.949Z,3.07
2019-05-07T14:36:22.930Z,3.50
2019-05-07T14:38:52.744Z,3.50
2019-05-07T14:41:25.272Z,3.80
2019-05-07T14:43:56.584Z,3.80
2019-05-07T14:46:25.346Z,3.63
2019-05-07T14:48:54.037Z,3.20
2019-05-07T14:51:22.710Z,3.60
2019-05-07T14:53:51.370Z,4.00
2019-05-07T14:56:19.847Z,3.40
2019-05-07T14:58:48.613Z,3.73
2019-05-07T15:01:17.315Z,4.10
2019-05-07T15:03:46.218Z,3.53
2019-05-07T15:06:14.813Z,4.20
2019-05-07T15:08:43.768Z,4.30
2019-05-07T15:11:12.392Z,4.10
2019-05-07T15:13:42.734Z,3.67
2019-05-07T15:16:12.200Z,3.67
2019-05-07T15:18:43.564Z,4.33
2019-05-07T15:21:13.206Z,4.53
2019-05-07T15:23:42.549Z,5.80
2019-05-07T15:26:12.853Z,5.20
2019-05-07T15:28:43.306Z,6.20
2019-05-07T15:31:16.370Z,5.60
2019-05-07T15:33:45.012Z,6.60
2019-05-07T15:36:13.665Z,5.50
2019-05-07T15:38:42.932Z,6.60
2019-05-07T15:41:11.757Z,5.83
2019-05-07T15:43:43.819Z,6.90
2019-05-07T15:46:12.171Z,6.90
2019-05-07T15:48:42.032Z,7.67
2019-05-07T15:51:11.861Z,7.00
2019-05-07T15:53:42.720Z,7.40
2019-05-07T15:56:12.489Z,8.03
2019-05-07T15:58:42.580Z,8.03
2019-05-07T16:01:12.877Z,7.73
2019-05-07T16:03:43.370Z,8.20
2019-05-07T16:06:12.653Z,8.10
2019-05-07T16:08:43.002Z,8.93
2019-05-07T16:11:12.524Z,9.00
2019-05-07T16:13:45.213Z,8.90
2019-05-07T16:16:13.731Z,9.73
2019-05-07T16:18:55.609Z,8.40
2019-05-07T16:21:24.209Z,9.20
2019-05-07T16:23:54.816Z,9.53
2019-05-07T16:26:23.037Z,9.60
2019-05-07T16:28:53.309Z,9.00
2019-05-07T16:31:24.432Z,10.20
2019-05-07T16:33:52.227Z,9.93
2019-05-07T16:36:21.957Z,8.73
2019-05-07T16:38:52.688Z,9.73
2019-05-07T16:41:22.382Z,10.60
2019-05-07T16:43:52.420Z,10.30
2019-05-07T16:46:22.438Z,10.20
2019-05-07T16:48:50.736Z,11.53
2019-05-07T16:51:19.278Z,10.63
2019-05-07T16:53:47.927Z,11.20
2019-05-07T16:56:16.520Z,12.17
2019-05-07T16:59:01.822Z,9.93
2019-05-07T17:01:32.368Z,12.07
2019-05-07T17:04:02.731Z,10.90
2019-05-07T17:06:32.191Z,11.60
2019-05-07T17:09:13.772Z,10.83
2019-05-07T17:11:43.680Z,11.80
2019-05-07T17:14:12.920Z,9.93
2019-05-07T17:16:41.429Z,10.60
2019-05-07T17:19:11.786Z,11.07
2019-05-07T17:21:40.194Z,10.73
2019-05-07T17:24:08.764Z,10.27
2019-05-07T17:26:37.318Z,10.90
2019-05-07T17:29:05.929Z,10.60
2019-05-07T17:31:34.158Z,10.20
2019-05-07T17:34:02.638Z,10.00
2019-05-07T17:36:33.023Z,11.37
2019-05-07T17:39:02.792Z,10.80
2019-05-07T17:41:32.274Z,11.83
2019-05-07T17:44:02.747Z,10.60
2019-05-07T17:46:32.388Z,10.27
2019-05-07T17:49:02.417Z,10.77
2019-05-07T17:51:42.079Z,11.10
2019-05-07T17:54:13.184Z,11.50
2019-05-07T17:56:42.247Z,10.97
2019-05-07T17:59:12.212Z,10.50
2019-05-07T18:01:52.983Z,11.10
2019-05-07T18:04:21.647Z,11.50
2019-05-07T18:06:52.144Z,10.50
2019-05-07T18:09:22.430Z,11.13
2019-05-07T18:11:52.109Z,11.03
2019-05-07T18:14:22.647Z,11.00
2019-05-07T18:16:54.731Z,11.57
2019-05-07T18:19:23.241Z,11.70
2019-05-07T18:21:52.462Z,10.63
2019-05-07T18:24:22.391Z,11.13
2019-05-07T18:26:52.620Z,12.37
2019-05-07T18:29:22.507Z,11.53
2019-05-07T18:31:53.063Z,10.80
2019-05-07T18:34:21.448Z,12.97
2019-05-07T18:36:49.705Z,12.90
2019-05-07T18:39:20.341Z,12.70
2019-05-07T18:41:48.506Z,12.30
2019-05-07T18:44:16.817Z,12.50
2019-05-07T18:46:45.053Z,12.17
2019-05-07T18:49:13.490Z,11.77
2019-05-07T18:51:42.702Z,11.87
2019-05-07T18:54:12.031Z,12.77
2019-05-07T18:56:42.110Z,13.57
2019-05-07T18:59:11.387Z,13.45
2019-05-07T19:01:42.282Z,12.45
2019-05-07T19:04:12.672Z,13.63
2019-05-07T19:06:42.408Z,12.65
2019-05-07T19:09:11.134Z,13.70
2019-05-07T19:11:39.826Z,14.10
2019-05-07T19:14:08.420Z,14.33
2019-05-07T19:16:36.921Z,14.05
2019-05-07T19:19:05.850Z,15.03
2019-05-07T19:21:34.568Z,15.32
2019-05-07T19:24:03.736Z,14.50
2019-05-07T19:26:32.524Z,14.13
2019-05-07T19:29:02.588Z,14.70
2019-05-07T19:31:32.569Z,14.83
2019-05-07T19:34:03.034Z,15.30
2019-05-07T19:36:32.251Z,15.32
2019-05-07T19:39:01.986Z,16.02
2019-05-07T19:41:32.075Z,15.63
2019-05-07T19:44:02.009Z,16.80
2019-05-07T19:46:30.932Z,16.40
2019-05-07T19:48:59.516Z,16.82
2019-05-07T19:51:28.078Z,15.90
2019-05-07T19:53:56.557Z,16.57
2019-05-07T19:56:25.382Z,15.48
2019-05-07T19:58:54.397Z,16.40
2019-05-07T20:01:24.895Z,17.57
2019-05-07T20:03:53.386Z,18.35
2019-05-07T20:06:23.351Z,17.57
2019-05-07T20:08:52.898Z,19.07
2019-05-07T20:11:23.198Z,18.70
2019-05-07T20:13:52.405Z,19.95
2019-05-07T20:16:22.922Z,17.40
2019-05-07T20:18:52.449Z,17.60
2019-05-07T20:21:22.835Z,18.10
2019-05-07T20:23:52.726Z,19.60
2019-05-07T20:26:23.183Z,19.32
2019-05-07T20:28:52.641Z,19.25
2019-05-07T20:31:22.712Z,19.32
2019-05-07T20:33:53.193Z,18.95
2019-05-07T20:36:22.206Z,21.05
2019-05-07T20:38:52.152Z,19.62
2019-05-07T20:41:23.089Z,20.32
2019-05-07T20:43:52.370Z,20.82
2019-05-07T20:46:21.432Z,22.40
2019-05-07T20:48:52.482Z,22.60
2019-05-07T20:51:22.953Z,21.95
2019-05-07T20:53:58.695Z,21.95
2019-05-07T20:56:32.297Z,20.50
2019-05-07T20:59:02.960Z,20.45
2019-05-07T21:01:32.929Z,20.08
2019-05-07T21:04:02.229Z,19.27
2019-05-07T21:06:32.915Z,21.57
2019-05-07T21:09:01.491Z,19.37
2019-05-07T21:11:32.326Z,20.08
2019-05-07T21:14:03.080Z,19.15
2019-05-07T21:16:32.867Z,21.93
2019-05-07T21:19:02.165Z,22.82
2019-05-07T21:21:32.749Z,20.10
2019-05-07T21:24:02.084Z,21.70
2019-05-07T21:26:32.668Z,21.35
2019-05-07T21:29:03.029Z,22.65
2019-05-07T21:31:32.283Z,19.98
2019-05-07T21:34:03.129Z,20.45
2019-05-07T21:36:32.512Z,20.12
2019-05-07T21:39:02.258Z,21.25
2019-05-07T21:41:33.549Z,21.77
2019-05-07T21:44:01.839Z,19.40
2019-05-07T21:46:32.798Z,22.10
2019-05-07T21:49:02.605Z,22.05
2019-05-07T21:51:31.757Z,22.27
2019-05-07T21:54:12.091Z,24.32
2019-05-07T21:56:54.645Z,22.50
2019-05-07T21:59:24.955Z,23.10
2019-05-07T22:01:58.006Z,23.32
2019-05-07T22:04:26.973Z,26.52
2019-05-07T22:06:55.429Z,25.70
2019-05-07T22:09:24.169Z,28.32
2019-05-07T22:11:53.775Z,28.12
2019-05-07T22:14:22.637Z,29.30
2019-05-07T22:16:54.301Z,31.05
2019-05-07T22:19:21.305Z,29.70
2019-05-07T22:21:52.180Z,27.32
2019-05-07T22:24:22.339Z,29.60
2019-05-07T22:26:51.173Z,26.87
2019-05-07T22:29:19.626Z,28.85
2019-05-07T22:31:53.150Z,26.60
2019-05-07T22:34:29.574Z,28.00
2019-05-07T22:36:58.030Z,24.98
2019-05-07T22:39:26.793Z,25.20
2019-05-07T22:41:55.259Z,26.30
2019-05-07T22:44:26.355Z,24.50
2019-05-07T22:46:54.704Z,25.97
2019-05-07T22:49:23.238Z,27.05
2019-05-07T22:51:52.611Z,25.80
2019-05-07T22:54:22.733Z,24.05
2019-05-07T22:56:59.320Z,22.67
2019-05-07T22:59:28.154Z,25.15
2019-05-07T23:01:56.610Z,24.37
2019-05-07T23:04:25.543Z,21.85
2019-05-07T23:06:53.982Z,24.72
2019-05-07T23:09:22.791Z,27.32
2019-05-07T23:11:52.605Z,25.50
2019-05-07T23:14:22.673Z,26.55
2019-05-07T23:16:54.941Z,26.48
2019-05-07T23:19:22.261Z,23.83
2019-05-07T23:21:52.191Z,24.75
2019-05-07T23:24:23.715Z,24.67
2019-05-07T23:26:53.669Z,24.37
2019-05-07T23:29:22.745Z,22.27
2019-05-07T23:31:52.896Z,24.65
2019-05-07T23:34:22.298Z,25.60
2019-05-07T23:36:53.002Z,24.47
2019-05-07T23:39:22.690Z,13.70
2019-05-07T23:41:55.930Z,18.80
2019-05-07T23:44:24.760Z,16.97
2019-05-07T23:46:53.530Z,16.00
2019-05-07T23:49:23.225Z,16.95
2019-05-07T23:51:53.050Z,15.25
2019-05-07T23:54:23.165Z,15.35
2019-05-07T23:57:05.437Z,16.50
2019-05-07T23:59:22.432Z,15.30
